Time;durP1;ratioP1;P1;durP2;ratioP2;P2;SDS_P1;SDS_P2;PMS_P1;PMS_P2;Temp;Humidity;BMP_temperature;BMP_pressure;BME280_temperature;BME280_humidity;BME280_pressure;Samples;Min_cycle;Max_cycle;Signal;HPM_P1;HPM_P2
2022/07/19 00:00:09;;;;;;;2.87;2.10;;;;;;;16.62;91.19;99955.91;5053316;28;20225;-79
2022/07/19 00:02:37;;;;;;;5.43;1.80;;;;;;;16.58;90.05;99950.19;5052874;28;20316;-78
2022/07/19 00:05:05;;;;;;;3.10;1.63;;;;;;;16.54;91.94;99951.75;5055451;28;20221;-79
2022/07/19 00:07:32;;;;;;;2.23;1.70;;;;;;;16.51;98.55;99956.84;5055133;28;20264;-79
2022/07/19 00:09:58;;;;;;;3.37;1.67;;;;;;;16.46;100.00;99952.19;5060144;28;20316;-78
2022/07/19 00:12:25;;;;;;;3.30;1.93;;;;;;;16.38;100.00;99947.19;5057851;28;20276;-78
2022/07/19 00:14:52;;;;;;;3.00;2.10;;;;;;;16.27;100.00;99950.84;5056739;28;20237;-79
2022/07/19 00:17:19;;;;;;;2.97;1.80;;;;;;;16.23;100.00;99955.94;5053321;28;20240;-78
2022/07/19 00:19:45;;;;;;;5.60;1.97;;;;;;;16.16;100.00;99944.44;5043447;28;20230;-78
2022/07/19 00:22:13;;;;;;;3.23;1.70;;;;;;;16.12;100.00;99958.72;5061258;28;20226;-79
2022/07/19 00:24:40;;;;;;;2.83;1.87;;;;;;;16.06;100.00;99952.41;5050829;28;20306;-78
2022/07/19 00:27:06;;;;;;;4.63;1.97;;;;;;;16.03;100.00;99949.38;5051536;28;20241;-78
2022/07/19 00:29:33;;;;;;;4.83;2.00;;;;;;;16.01;100.00;99949.63;5055232;28;20233;-80
2022/07/19 00:32:00;;;;;;;2.30;1.80;;;;;;;15.99;100.00;99949.06;5051141;28;20618;-78
2022/07/19 00:34:26;;;;;;;4.60;1.80;;;;;;;15.97;100.00;99943.09;5029266;28;20241;-79
2022/07/19 00:36:53;;;;;;;4.13;1.90;;;;;;;15.91;100.00;99948.66;5036244;28;20265;-79
2022/07/19 00:39:20;;;;;;;2.40;1.87;;;;;;;15.85;100.00;99948.59;5041923;28;20237;-79
2022/07/19 00:41:47;;;;;;;2.27;1.80;;;;;;;15.82;100.00;99942.84;5049416;28;20253;-77
2022/07/19 00:44:13;;;;;;;3.73;1.90;;;;;;;15.78;100.00;99947.91;5056531;28;20780;-77
2022/07/19 00:46:40;;;;;;;6.30;2.00;;;;;;;15.77;100.00;99945.47;5060437;28;20312;-77
2022/07/19 00:49:07;;;;;;;3.27;1.80;;;;;;;15.69;100.00;99949.38;5062426;28;20254;-78
2022/07/19 00:51:35;;;;;;;3.23;1.80;;;;;;;15.61;100.00;99951.69;5056025;28;20713;-78
2022/07/19 00:54:03;;;;;;;2.43;1.80;;;;;;;15.57;100.00;99950.53;5058125;28;20256;-78
2022/07/19 00:56:33;;;;;;;5.53;2.00;;;;;;;15.51;100.00;99949.63;5048453;28;20708;-77
2022/07/19 00:59:02;;;;;;;6.10;2.20;;;;;;;15.47;100.00;99945.75;5055959;28;20230;-78
2022/07/19 01:01:29;;;;;;;5.93;2.07;;;;;;;15.45;100.00;99947.84;5041013;28;20257;-78
2022/07/19 01:03:57;;;;;;;3.67;1.93;;;;;;;15.42;100.00;99951.06;5055988;28;20796;-79
2022/07/19 01:06:24;;;;;;;3.47;1.93;;;;;;;15.38;100.00;99942.63;5036478;28;20236;-77
2022/07/19 01:08:50;;;;;;;4.57;2.03;;;;;;;15.38;100.00;99944.50;5053649;28;20847;-78
2022/07/19 01:11:17;;;;;;;3.33;1.87;;;;;;;15.38;100.00;99931.00;5047098;28;20230;-79
2022/07/19 01:13:43;;;;;;;2.67;1.80;;;;;;;15.36;100.00;99936.66;5047587;28;20696;-78
2022/07/19 01:16:10;;;;;;;3.30;1.80;;;;;;;15.34;100.00;99941.47;5052102;28;20708;-79
2022/07/19 01:18:37;;;;;;;4.47;2.23;;;;;;;15.34;100.00;99946.06;5044578;28;20250;-79
2022/07/19 01:21:04;;;;;;;4.03;1.97;;;;;;;15.36;100.00;99939.34;5046661;28;20759;-81
2022/07/19 01:23:31;;;;;;;2.67;2.00;;;;;;;15.29;100.00;99940.56;5050300;28;20295;-79
2022/07/19 01:25:57;;;;;;;5.33;2.10;;;;;;;15.24;100.00;99940.47;5052569;28;21408;-79
2022/07/19 01:28:24;;;;;;;3.10;1.97;;;;;;;15.20;100.00;99936.63;5047004;28;20315;-78
2022/07/19 01:30:51;;;;;;;2.93;2.00;;;;;;;15.18;100.00;99936.84;5040086;28;20256;-78
2022/07/19 01:33:17;;;;;;;3.93;1.80;;;;;;;15.14;100.00;99926.78;5044264;28;20688;-78
2022/07/19 01:35:44;;;;;;;2.57;2.07;;;;;;;15.13;100.00;99936.75;5050788;28;20328;-77
2022/07/19 01:38:10;;;;;;;3.37;2.13;;;;;;;15.10;100.00;99934.56;5042328;28;20252;-78
2022/07/19 01:40:37;;;;;;;2.97;2.10;;;;;;;15.04;100.00;99932.81;5054908;28;20655;-78
2022/07/19 01:43:04;;;;;;;4.23;2.20;;;;;;;14.98;100.00;99925.66;5045580;28;20280;-79
2022/07/19 01:45:30;;;;;;;4.77;2.30;;;;;;;14.91;100.00;99928.53;5056676;28;20729;-77
2022/07/19 01:47:57;;;;;;;3.40;2.17;;;;;;;14.86;100.00;99928.44;5041900;28;20320;-78
2022/07/19 01:50:24;;;;;;;3.50;2.10;;;;;;;14.84;100.00;99935.09;5047912;28;20300;-78
2022/07/19 01:52:50;;;;;;;2.67;2.00;;;;;;;14.73;100.00;99931.41;5051235;28;20309;-80
2022/07/19 01:55:19;;;;;;;2.30;2.10;;;;;;;14.70;100.00;99934.56;5048442;28;20788;-79
2022/07/19 01:57:46;;;;;;;2.47;2.20;;;;;;;14.68;100.00;99933.19;5048031;28;20229;-79
2022/07/19 02:00:13;;;;;;;2.30;2.00;;;;;;;14.62;100.00;99924.16;5049788;28;20261;-79
2022/07/19 02:02:41;;;;;;;4.13;2.17;;;;;;;14.58;100.00;99930.28;5070166;28;20232;-78
2022/07/19 02:05:08;;;;;;;5.90;2.27;;;;;;;14.51;100.00;99928.53;5049951;28;20256;-79
2022/07/19 02:07:37;;;;;;;2.90;2.10;;;;;;;14.48;100.00;99933.56;5053395;28;20228;-79
2022/07/19 02:10:04;;;;;;;3.30;2.10;;;;;;;14.42;100.00;99924.56;5056602;28;20261;-79
2022/07/19 02:12:31;;;;;;;3.17;2.27;;;;;;;14.37;100.00;99934.44;5058635;28;20269;-78
2022/07/19 02:14:58;;;;;;;2.80;2.10;;;;;;;14.34;100.00;99941.06;5055892;28;20253;-79
2022/07/19 02:17:24;;;;;;;3.20;2.10;;;;;;;14.29;100.00;99940.94;5050331;28;20328;-77
2022/07/19 02:19:51;;;;;;;4.23;2.00;;;;;;;14.29;100.00;99940.94;5053644;28;20256;-76
2022/07/19 02:22:17;;;;;;;3.37;2.17;;;;;;;14.29;100.00;99937.44;5052783;28;20261;-77
2022/07/19 02:24:44;;;;;;;4.70;2.40;;;;;;;14.31;100.00;99938.03;5044460;28;20317;-79
2022/07/19 02:27:11;;;;;;;2.13;1.93;;;;;;;14.28;100.00;99936.63;5053505;28;20320;-78
2022/07/19 02:29:38;;;;;;;2.73;2.20;;;;;;;14.27;100.00;99937.69;5063459;28;20257;-78
2022/07/19 02:32:05;;;;;;;3.60;2.13;;;;;;;14.27;100.00;99934.19;5053941;28;20256;-78
2022/07/19 02:34:32;;;;;;;3.13;2.30;;;;;;;14.27;100.00;99935.00;5050557;28;20236;-79
2022/07/19 02:36:59;;;;;;;2.73;2.10;;;;;;;14.28;100.00;99938.47;5051859;28;20268;-78
2022/07/19 02:39:27;;;;;;;2.87;2.10;;;;;;;14.21;100.00;99933.25;5063226;28;20316;-78
2022/07/19 02:41:54;;;;;;;3.87;2.03;;;;;;;14.18;100.00;99940.97;5058279;28;20228;-78
2022/07/19 02:44:21;;;;;;;2.17;1.93;;;;;;;14.17;100.00;99940.16;5046629;28;20257;-78
2022/07/19 02:46:47;;;;;;;3.57;2.00;;;;;;;14.17;100.00;99942.84;5057865;28;20275;-78
2022/07/19 02:49:14;;;;;;;2.47;2.00;;;;;;;14.16;100.00;99949.28;5052417;28;20324;-78
2022/07/19 02:51:41;;;;;;;3.80;2.37;;;;;;;14.18;100.00;99951.75;5047217;28;20268;-77
2022/07/19 02:54:07;;;;;;;2.63;2.00;;;;;;;14.17;100.00;99953.63;5056437;28;20316;-79
2022/07/19 02:56:36;;;;;;;3.40;2.00;;;;;;;14.10;100.00;99951.03;5052322;28;20257;-80
2022/07/19 02:59:06;;;;;;;2.30;2.10;;;;;;;14.11;100.00;99954.56;5052773;28;20232;-78
2022/07/19 03:01:33;;;;;;;2.83;2.20;;;;;;;14.11;100.00;99966.16;5055042;28;20287;-78
2022/07/19 03:04:00;;;;;;;3.10;2.03;;;;;;;14.09;100.00;99962.88;5057510;28;20244;-77
2022/07/19 03:06:27;;;;;;;3.17;2.03;;;;;;;14.08;100.00;99963.94;5051574;28;20233;-78
2022/07/19 03:08:54;;;;;;;2.57;2.30;;;;;;;14.09;100.00;99968.25;5053346;28;20303;-78
2022/07/19 03:11:21;;;;;;;2.50;2.03;;;;;;;14.06;100.00;99965.22;5056110;28;20236;-79
2022/07/19 03:13:48;;;;;;;5.20;2.23;;;;;;;14.05;100.00;99967.09;5052961;28;20710;-79
2022/07/19 03:16:15;;;;;;;3.07;2.07;;;;;;;14.05;100.00;99960.88;5053759;28;20226;-79
2022/07/19 03:18:42;;;;;;;5.27;2.30;;;;;;;14.00;100.00;99961.56;5052947;28;20294;-78
2022/07/19 03:21:09;;;;;;;2.97;2.07;;;;;;;14.04;100.00;99972.72;5049070;28;20263;-77
2022/07/19 03:23:36;;;;;;;2.40;2.20;;;;;;;14.05;100.00;99972.47;5053699;28;20270;-80
2022/07/19 03:26:04;;;;;;;2.93;2.43;;;;;;;14.04;100.00;99975.41;5054302;28;20235;-77
2022/07/19 03:28:32;;;;;;;5.93;2.60;;;;;;;14.06;100.00;99970.59;5052430;28;20253;-78
2022/07/19 03:30:59;;;;;;;4.23;2.40;;;;;;;14.09;100.00;99984.41;5051694;28;20249;-78
2022/07/19 03:33:26;;;;;;;3.07;2.50;;;;;;;14.11;100.00;99989.59;5053571;28;20253;-78
2022/07/19 03:35:53;;;;;;;4.37;2.00;;;;;;;14.13;100.00;99989.34;5050356;28;20295;-78
2022/07/19 03:38:20;;;;;;;3.20;2.50;;;;;;;14.17;100.00;99985.13;5055532;28;20312;-78
2022/07/19 03:40:47;;;;;;;2.60;2.10;;;;;;;14.18;100.00;99992.19;5053016;28;20696;-78
2022/07/19 03:43:15;;;;;;;5.00;2.40;;;;;;;14.18;100.00;99992.19;5053042;28;20232;-77
2022/07/19 03:45:44;;;;;;;2.93;2.60;;;;;;;14.20;100.00;99990.88;5054095;28;20233;-78
2022/07/19 03:48:11;;;;;;;3.03;2.30;;;;;;;14.20;100.00;99996.25;5051073;28;20317;-77
2022/07/19 03:50:38;;;;;;;3.37;2.20;;;;;;;14.21;100.00;99995.22;5052485;28;20257;-79
2022/07/19 03:53:05;;;;;;;3.93;2.83;;;;;;;14.28;100.00;99997.78;5054234;28;20252;-78
2022/07/19 03:55:32;;;;;;;3.10;2.80;;;;;;;14.31;100.00;99991.94;5051689;28;20696;-78
2022/07/19 03:57:58;;;;;;;6.07;2.30;;;;;;;14.35;100.00;99991.22;5049180;28;20313;-80
2022/07/19 04:00:25;;;;;;;4.33;2.30;;;;;;;14.41;100.00;99995.72;5052999;28;20231;-79
2022/07/19 04:02:52;;;;;;;2.50;2.30;;;;;;;14.47;100.00;99997.44;5059526;28;20331;-78
2022/07/19 04:05:19;;;;;;;3.43;2.30;;;;;;;14.79;100.00;100003.25;5081941;28;20269;-79
2022/07/19 04:07:46;;;;;;;4.27;2.30;;;;;;;16.02;100.00;100005.31;5036270;28;20258;-80
2022/07/19 04:10:13;;;;;;;4.20;2.10;;;;;;;17.59;100.00;100002.81;5048597;28;20264;-79
2022/07/19 04:12:39;;;;;;;3.00;2.13;;;;;;;18.99;89.88;100005.19;5034311;28;20320;-79
2022/07/19 04:15:07;;;;;;;6.03;3.30;;;;;;;20.18;75.73;100021.97;5048539;28;20696;-80
2022/07/19 04:17:34;;;;;;;3.23;2.27;;;;;;;20.99;67.24;100030.00;5050099;28;20252;-78
2022/07/19 04:20:01;;;;;;;5.57;2.37;;;;;;;21.22;65.15;100009.50;5049234;28;20267;-77
2022/07/19 04:22:28;;;;;;;3.67;2.10;;;;;;;21.07;64.45;100013.09;5048983;28;20684;-79
2022/07/19 04:24:54;;;;;;;4.33;2.40;;;;;;;21.04;65.80;100008.16;5047953;28;20264;-81
2022/07/19 04:27:21;;;;;;;4.40;2.47;;;;;;;20.73;67.35;100001.22;5048191;28;20356;-79
2022/07/19 04:29:48;;;;;;;4.83;2.00;;;;;;;20.75;68.64;100015.38;5048167;28;20225;-79
2022/07/19 04:32:15;;;;;;;3.63;2.10;;;;;;;20.77;68.53;100006.91;5046668;28;20252;-78
2022/07/19 04:34:46;;;;;;;3.07;2.30;;;;;;;20.45;70.74;100018.16;5043053;28;20222;-78
2022/07/19 04:37:13;;;;;;;4.90;2.10;;;;;;;20.10;73.72;100017.09;5049129;28;20225;-79
2022/07/19 04:39:39;;;;;;;3.47;2.00;;;;;;;19.77;73.46;100015.72;5048262;28;20230;-79
2022/07/19 04:42:06;;;;;;;5.00;2.20;;;;;;;19.54;76.95;100013.50;5046053;28;20260;-79
2022/07/19 04:44:33;;;;;;;2.73;1.83;;;;;;;19.38;79.99;100021.84;5049626;28;20694;-79
2022/07/19 04:47:00;;;;;;;2.33;2.13;;;;;;;19.23;83.14;100019.91;5048457;28;20230;-79
2022/07/19 04:49:27;;;;;;;5.00;2.00;;;;;;;19.19;83.37;100016.91;5049458;28;20246;-78
2022/07/19 04:51:54;;;;;;;5.10;2.30;;;;;;;19.19;80.76;100018.81;5047685;28;20229;-79
2022/07/19 04:54:20;;;;;;;2.70;2.00;;;;;;;19.17;79.63;100015.56;5048981;28;20243;-79
2022/07/19 04:56:47;;;;;;;4.10;2.10;;;;;;;19.26;78.48;100017.50;5043850;28;20238;-79
2022/07/19 04:59:14;;;;;;;4.27;2.20;;;;;;;19.28;78.62;100012.59;5044873;28;20333;-79
2022/07/19 05:01:40;;;;;;;2.67;2.10;;;;;;;19.45;79.16;100012.41;5042843;28;20325;-79
2022/07/19 05:04:10;;;;;;;3.83;2.00;;;;;;;19.61;77.35;100010.53;5044345;28;20338;-79
2022/07/19 05:06:37;;;;;;;3.53;1.87;;;;;;;19.62;77.89;100012.97;5050358;28;20229;-81
2022/07/19 05:09:03;;;;;;;3.03;2.10;;;;;;;19.66;77.06;100010.53;5043868;28;20331;-80
2022/07/19 05:11:30;;;;;;;5.67;2.10;;;;;;;19.76;79.84;100021.41;5040772;28;20264;-79
2022/07/19 05:13:57;;;;;;;3.20;2.20;;;;;;;19.86;81.98;100023.34;5039771;28;20267;-81
2022/07/19 05:16:23;;;;;;;3.73;2.17;;;;;;;20.02;82.52;100028.50;5045717;28;20716;-79
2022/07/19 05:18:50;;;;;;;5.13;2.17;;;;;;;20.10;79.15;100017.09;5044285;28;20642;-79
2022/07/19 05:21:17;;;;;;;7.60;2.00;;;;;;;20.27;76.77;100015.97;5048076;28;20688;-80
2022/07/19 05:23:44;;;;;;;5.07;1.90;;;;;;;20.37;72.94;100014.09;5041500;28;20231;-79
2022/07/19 05:26:10;;;;;;;5.37;1.93;;;;;;;20.52;73.73;100016.00;5043002;28;20304;-79
2022/07/19 05:28:37;;;;;;;4.90;2.20;;;;;;;20.70;71.43;100015.41;5040742;28;20250;-79
2022/07/19 05:31:04;;;;;;;5.13;2.50;;;;;;;20.89;69.58;100013.69;5044922;28;20258;-80
2022/07/19 05:33:31;;;;;;;5.13;2.30;;;;;;;21.13;65.16;100008.47;5047813;28;20226;-78
2022/07/19 05:35:58;;;;;;;3.27;1.80;;;;;;;21.27;64.20;100016.84;5050161;28;20756;-79
2022/07/19 05:38:25;;;;;;;4.77;2.00;;;;;;;21.46;61.92;100010.44;5038625;28;20250;-79
2022/07/19 05:40:51;;;;;;;5.80;1.77;;;;;;;21.56;58.70;99998.66;5037868;28;20676;-79
2022/07/19 05:43:18;;;;;;;5.07;1.80;;;;;;;21.65;57.54;100002.41;5048284;28;20256;-79
2022/07/19 05:45:45;;;;;;;3.57;1.67;;;;;;;21.79;57.20;100005.34;5080608;28;20253;-82
2022/07/19 05:48:12;;;;;;;6.57;1.80;;;;;;;22.01;56.75;99999.47;5042600;28;20238;-81
2022/07/19 05:50:38;;;;;;;4.80;2.10;;;;;;;22.20;55.66;99995.75;5042366;28;20317;-81
2022/07/19 05:53:05;;;;;;;4.73;1.83;;;;;;;22.40;54.58;100008.34;5045595;28;20329;-80
2022/07/19 05:55:31;;;;;;;3.80;2.00;;;;;;;22.65;53.64;99999.09;5049747;28;20248;-81
2022/07/19 05:57:58;;;;;;;5.68;2.05;;;;;;;22.68;54.80;100015.72;5049473;28;20244;-82
2022/07/19 06:00:25;;;;;;;5.47;2.13;;;;;;;22.82;53.68;100010.41;5043651;28;20243;-81
2022/07/19 06:02:52;;;;;;;5.68;2.03;;;;;;;22.83;53.60;100006.56;5046193;28;20234;-80
2022/07/19 06:05:18;;;;;;;2.42;1.52;;;;;;;22.96;53.08;100005.84;5052733;28;20245;-81
2022/07/19 06:07:45;;;;;;;4.00;1.60;;;;;;;23.06;51.53;100002.19;5044042;28;20229;-81
2022/07/19 06:10:12;;;;;;;4.35;1.70;;;;;;;23.21;51.68;100004.72;5047588;28;20257;-81
2022/07/19 06:12:38;;;;;;;2.25;1.90;;;;;;;23.27;51.67;99998.91;5051934;28;20303;-81
2022/07/19 06:15:05;;;;;;;3.70;1.90;;;;;;;23.38;51.52;100002.28;5047531;28;20305;-84
2022/07/19 06:17:34;;;;;;;3.20;1.90;;;;;;;23.55;51.98;100001.84;5051843;28;20234;-80
2022/07/19 06:20:01;;;;;;;3.47;1.75;;;;;;;23.58;50.90;99999.31;5047284;28;20283;-80
2022/07/19 06:22:31;;;;;;;2.97;1.65;;;;;;;23.75;50.66;100003.44;5044842;28;20718;-82
2022/07/19 06:24:58;;;;;;;3.60;1.95;;;;;;;23.92;48.52;100000.97;5049642;28;20238;-81
2022/07/19 06:27:25;;;;;;;2.63;1.90;;;;;;;24.09;47.10;100003.97;5047585;28;20272;-81
2022/07/19 06:29:51;;;;;;;2.47;1.80;;;;;;;24.19;45.51;99995.63;5053601;28;20253;-79
2022/07/19 06:32:18;;;;;;;2.50;1.58;;;;;;;24.36;45.25;100000.50;5044814;28;20256;-79
2022/07/19 06:34:45;;;;;;;4.10;1.90;;;;;;;24.56;44.15;100000.97;5045916;28;20723;-78
2022/07/19 06:37:11;;;;;;;3.65;2.08;;;;;;;24.61;44.26;100001.97;5053049;28;20622;-79
2022/07/19 06:39:38;;;;;;;2.58;1.98;;;;;;;24.74;43.79;100003.91;5046347;28;20691;-79
2022/07/19 06:42:05;;;;;;;3.70;1.88;;;;;;;24.81;44.05;100005.16;5052141;28;20227;-78
2022/07/19 06:44:33;;;;;;;3.50;2.03;;;;;;;24.95;43.92;100008.72;5049226;28;20222;-80
2022/07/19 06:47:00;;;;;;;2.60;1.70;;;;;;;25.07;43.50;100007.38;5047843;28;20268;-78
2022/07/19 06:49:27;;;;;;;1.88;1.70;;;;;;;25.14;43.56;100000.38;5046558;28;20263;-78
2022/07/19 06:51:54;;;;;;;3.90;1.98;;;;;;;25.33;43.84;100001.06;5047516;28;20251;-78
2022/07/19 06:54:20;;;;;;;2.60;1.90;;;;;;;25.23;42.12;99992.25;5046543;28;22541;-79
2022/07/19 06:56:48;;;;;;;3.85;1.90;;;;;;;25.29;41.88;99991.81;5050385;28;20248;-79
2022/07/19 06:59:14;;;;;;;4.13;2.20;;;;;;;25.34;42.92;100004.59;5048581;28;20227;-79
2022/07/19 07:01:41;;;;;;;2.22;1.70;;;;;;;25.43;41.89;99998.06;5048971;28;20251;-81
2022/07/19 07:04:08;;;;;;;4.28;1.73;;;;;;;25.41;41.06;99999.50;5048132;28;20231;-80
2022/07/19 07:06:34;;;;;;;3.30;1.67;;;;;;;25.55;40.54;99988.53;5049562;28;20249;-79
2022/07/19 07:09:02;;;;;;;4.80;1.88;;;;;;;25.68;41.06;99991.22;5044161;28;20388;-80
2022/07/19 07:11:30;;;;;;;2.47;1.85;;;;;;;25.81;39.91;99992.28;5046875;28;20242;-79
2022/07/19 07:13:56;;;;;;;2.75;1.70;;;;;;;25.88;40.75;99994.59;5048142;28;20270;-82
2022/07/19 07:16:23;;;;;;;4.68;1.77;;;;;;;25.97;40.11;99995.47;5047468;28;20698;-79
2022/07/19 07:18:50;;;;;;;2.25;2.05;;;;;;;25.85;40.22;99991.34;5045753;28;20306;-79
2022/07/19 07:21:17;;;;;;;3.95;2.05;;;;;;;25.87;41.05;99993.78;5044443;28;20267;-79
2022/07/19 07:23:44;;;;;;;2.10;1.58;;;;;;;25.91;41.51;99992.03;5049190;28;20232;-80
2022/07/19 07:26:11;;;;;;;4.40;1.80;;;;;;;26.05;41.80;99989.22;5078922;28;20315;-80
2022/07/19 07:28:39;;;;;;;3.13;1.90;;;;;;;26.21;39.82;99996.81;5045452;28;20272;-79
2022/07/19 07:31:05;;;;;;;1.63;1.52;;;;;;;26.39;40.01;99994.97;5052140;28;20291;-80
2022/07/19 07:33:32;;;;;;;1.73;1.60;;;;;;;26.27;39.40;99991.97;5051077;28;20265;-78
2022/07/19 07:35:59;;;;;;;4.72;1.88;;;;;;;26.32;39.13;100002.03;5045759;28;20229;-80
2022/07/19 07:38:25;;;;;;;3.05;1.80;;;;;;;26.41;39.80;99994.66;5044377;28;20255;-82
2022/07/19 07:40:52;;;;;;;4.25;1.42;;;;;;;26.33;38.35;99990.72;5047983;28;20259;-80
2022/07/19 07:43:39;;;;;;;5.55;1.73;;;;;;;26.53;39.52;99983.88;5048850;28;20700;-80
2022/07/19 07:46:06;;;;;;;2.42;1.70;;;;;;;26.69;38.78;99980.38;5049719;28;20237;-80
2022/07/19 07:48:32;;;;;;;4.00;1.67;;;;;;;26.68;37.24;99980.72;5032851;28;20232;-80
2022/07/19 07:50:59;;;;;;;8.93;1.80;;;;;;;26.70;38.28;99984.75;5050038;28;20261;-80
2022/07/19 07:53:46;;;;;;;2.67;1.55;;;;;;;26.73;37.88;99986.88;5045738;28;20277;-79
2022/07/19 07:56:13;;;;;;;2.05;1.50;;;;;;;26.87;36.41;99989.53;5049931;28;20225;-80
2022/07/19 07:58:43;;;;;;;3.17;1.70;;;;;;;26.87;36.80;99983.22;5045365;28;20232;-80
2022/07/19 08:01:09;;;;;;;3.10;1.42;;;;;;;27.03;37.38;99987.97;5049215;28;20233;-80
2022/07/19 08:03:36;;;;;;;3.33;1.58;;;;;;;27.08;36.88;99984.25;5051270;28;20324;-81
2022/07/19 08:06:03;;;;;;;4.43;1.77;;;;;;;27.28;36.99;99983.66;5050764;28;20316;-79
2022/07/19 08:08:30;;;;;;;2.53;1.52;;;;;;;27.42;35.44;99981.56;5047282;28;20232;-80
2022/07/19 08:10:57;;;;;;;2.92;1.60;;;;;;;27.36;36.32;99976.53;5049600;28;20336;-80
2022/07/19 08:13:24;;;;;;;2.25;1.60;;;;;;;27.29;36.70;99976.22;5047719;28;20696;-80
2022/07/19 08:15:50;;;;;;;4.18;1.40;;;;;;;27.33;34.45;99978.00;5050074;28;20230;-80
2022/07/19 08:18:17;;;;;;;3.63;1.40;;;;;;;27.47;34.96;99978.66;5047932;28;20230;-81
2022/07/19 08:20:44;;;;;;;3.83;1.58;;;;;;;27.59;35.17;99976.09;5048705;28;20218;-80
2022/07/19 08:23:11;;;;;;;2.60;1.58;;;;;;;27.80;34.67;99979.00;5050790;28;20264;-80
2022/07/19 08:25:37;;;;;;;2.08;1.55;;;;;;;27.72;35.34;99981.72;5049797;28;20318;-81
2022/07/19 08:28:04;;;;;;;6.35;1.65;;;;;;;27.81;35.55;99979.81;5046991;28;20237;-79
2022/07/19 08:30:31;;;;;;;3.05;1.55;;;;;;;28.03;35.54;99969.41;5047153;28;20307;-81
2022/07/19 08:33:18;;;;;;;3.20;1.33;;;;;;;28.06;33.81;99967.94;5047373;28;20225;-82
2022/07/19 08:35:45;;;;;;;1.95;1.27;;;;;;;28.19;34.12;99977.16;5050684;28;20229;-82
2022/07/19 08:38:19;;;;;;;3.35;1.60;;;;;;;28.23;33.48;99973.41;5048692;28;20321;-82
2022/07/19 08:40:48;;;;;;;4.13;1.73;;;;;;;28.33;33.80;99966.75;5049416;28;20298;-82
2022/07/19 08:43:15;;;;;;;4.93;1.70;;;;;;;28.29;34.20;99963.84;5049134;28;20770;-81
2022/07/19 08:45:42;;;;;;;2.53;1.50;;;;;;;28.43;33.07;99958.13;5049191;28;20696;-81
2022/07/19 08:48:09;;;;;;;3.95;1.40;;;;;;;28.52;33.19;99966.34;5049891;28;20657;-82
2022/07/19 08:50:37;;;;;;;1.75;1.45;;;;;;;28.65;31.92;99965.34;5032665;28;20239;-82
2022/07/19 08:53:04;;;;;;;3.05;1.50;;;;;;;28.83;31.01;99970.47;5045247;28;20291;-81
2022/07/19 08:55:31;;;;;;;2.13;1.45;;;;;;;28.96;32.15;99965.84;5050161;28;20237;-81
2022/07/19 08:57:58;;;;;;;3.30;1.67;;;;;;;29.17;31.32;99960.34;5048907;28;20577;-81
2022/07/19 09:00:25;;;;;;;2.25;1.38;;;;;;;29.29;30.55;99952.16;5048058;28;20271;-81
2022/07/19 09:02:59;;;;;;;4.20;1.60;;;;;;;29.47;28.69;99953.69;5047528;28;20248;-79
2022/07/19 09:05:26;;;;;;;4.57;1.85;;;;;;;29.56;29.69;99950.84;5046559;28;20362;-81
2022/07/19 09:08:11;;;;;;;4.18;1.35;;;;;;;29.64;30.13;99949.94;5050344;28;20250;-81
2022/07/19 09:10:44;;;;;;;3.60;1.60;;;;;;;29.85;29.16;99959.03;5047856;28;20229;-80
2022/07/19 09:13:15;;;;;;;6.25;1.50;;;;;;;29.82;29.55;99956.91;5048619;28;20237;-81
2022/07/19 09:15:49;;;;;;;2.75;1.50;;;;;;;29.76;29.74;99950.00;5047047;28;20279;-80
2022/07/19 09:18:19;;;;;;;2.30;1.65;;;;;;;29.82;29.32;99948.63;5048725;28;20236;-80
2022/07/19 09:20:49;;;;;;;4.15;1.63;;;;;;;29.91;29.09;99951.38;5042537;28;20358;-79
2022/07/19 09:23:16;;;;;;;4.35;1.80;;;;;;;29.84;29.70;99951.88;5047376;28;20703;-80
2022/07/19 09:25:48;;;;;;;6.93;1.80;;;;;;;29.80;30.77;99948.19;5048849;28;20228;-80
2022/07/19 09:28:16;;;;;;;3.53;1.50;;;;;;;29.84;28.31;99942.78;5047569;28;20229;-79
2022/07/19 09:30:49;;;;;;;5.32;1.60;;;;;;;30.00;28.95;99941.03;5047526;28;20225;-79
2022/07/19 09:33:23;;;;;;;2.92;1.42;;;;;;;30.02;28.46;99939.53;5047805;28;20241;-81
2022/07/19 09:36:02;;;;;;;2.13;1.27;;;;;;;29.81;27.58;99935.19;5044089;28;20237;-80
2022/07/19 09:38:34;;;;;;;2.85;1.63;;;;;;;30.01;28.58;99934.34;5042692;28;20702;-80
2022/07/19 09:41:17;;;;;;;3.75;1.45;;;;;;;30.03;28.25;99934.81;5048878;28;20247;-80
2022/07/19 09:44:05;;;;;;;3.03;1.35;;;;;;;29.90;27.39;99934.00;5049172;28;20991;-79
2022/07/19 09:46:38;;;;;;;1.35;1.02;;;;;;;29.91;26.46;99930.06;5048134;28;20597;-79
2022/07/19 09:49:09;;;;;;;5.30;1.40;;;;;;;30.06;27.12;99926.66;5049172;28;20279;-79
2022/07/19 09:51:38;;;;;;;3.00;1.50;;;;;;;30.24;26.74;99921.72;5049894;28;20229;-79
2022/07/19 09:54:06;;;;;;;2.83;1.23;;;;;;;30.43;27.10;99918.41;5041422;28;20287;-81
2022/07/19 09:56:36;;;;;;;2.35;1.20;;;;;;;30.50;26.99;99913.16;5048306;28;20306;-79
2022/07/19 09:59:03;;;;;;;2.30;1.20;;;;;;;30.52;27.06;99917.16;5044245;28;20330;-79
2022/07/19 10:01:30;;;;;;;4.00;1.25;;;;;;;30.73;25.60;99914.31;5048484;28;20230;-80
2022/07/19 10:04:07;;;;;;;2.97;1.35;;;;;;;30.75;26.00;99911.97;5048758;28;20265;-79
2022/07/19 10:06:34;;;;;;;3.08;1.35;;;;;;;30.80;24.88;99905.41;5039862;28;20233;-79
2022/07/19 10:09:03;;;;;;;2.20;1.02;;;;;;;30.91;24.69;99901.81;5045019;28;20233;-79
2022/07/19 10:11:30;;;;;;;3.55;1.27;;;;;;;30.94;25.40;99903.88;5049370;28;20264;-79
2022/07/19 10:13:57;;;;;;;3.08;1.40;;;;;;;30.94;26.07;99906.66;5048681;28;20307;-80
2022/07/19 10:16:41;;;;;;;1.48;1.33;;;;;;;30.91;25.72;99899.06;5049143;28;20229;-81
2022/07/19 10:19:12;;;;;;;3.30;1.10;;;;;;;30.58;25.80;99896.44;5048693;28;20233;-79
2022/07/19 10:21:39;;;;;;;2.30;1.50;;;;;;;30.72;26.40;99890.56;5044915;28;20230;-79
2022/07/19 10:24:06;;;;;;;2.35;1.50;;;;;;;30.94;26.99;99895.59;5044879;28;20233;-79
2022/07/19 10:26:37;;;;;;;2.13;1.52;;;;;;;30.85;25.39;99891.34;5048085;28;20682;-79
2022/07/19 10:29:15;;;;;;;3.92;1.40;;;;;;;31.20;26.52;99886.13;5053219;28;20280;-80
2022/07/19 10:32:05;;;;;;;2.33;1.23;;;;;;;31.27;25.40;99875.25;5050029;28;20312;-79
2022/07/19 10:34:33;;;;;;;2.03;1.30;;;;;;;31.26;27.17;99884.72;5022355;28;20226;-79
2022/07/19 10:36:59;;;;;;;5.15;1.52;;;;;;;31.31;25.89;99878.94;5037879;28;20317;-81
2022/07/19 10:39:29;;;;;;;3.83;1.10;;;;;;;31.40;25.90;99879.59;5041742;28;20735;-80
2022/07/19 10:42:17;;;;;;;2.67;1.33;;;;;;;31.68;25.56;99885.94;5053261;28;20225;-79
2022/07/19 10:44:59;;;;;;;8.00;1.40;;;;;;;31.23;24.90;99877.09;5048217;28;20228;-79
2022/07/19 10:47:26;;;;;;;3.80;1.30;;;;;;;31.54;25.39;99882.75;5055994;28;20750;-82
2022/07/19 10:50:01;;;;;;;1.92;1.27;;;;;;;31.69;24.50;99875.66;5044834;28;20237;-80
2022/07/19 10:52:28;;;;;;;2.25;1.10;;;;;;;31.68;24.09;99868.53;5043547;28;20230;-79
2022/07/19 10:55:28;;;;;;;2.15;1.30;;;;;;;31.72;24.18;99866.66;5040548;28;20229;-79
2022/07/19 10:57:58;;;;;;;3.55;1.20;;;;;;;31.82;24.23;99864.16;5040930;28;20807;-80
2022/07/19 11:00:27;;;;;;;3.45;1.42;;;;;;;31.77;23.38;99860.88;5045402;28;20226;-79
2022/07/19 11:03:22;;;;;;;3.28;1.23;;;;;;;31.98;23.90;99866.94;5044520;28;20265;-80
2022/07/19 11:05:54;;;;;;;3.10;1.30;;;;;;;32.16;23.69;99870.19;5044682;28;20240;-79
2022/07/19 11:08:41;;;;;;;3.83;1.23;;;;;;;32.23;24.84;99873.16;5044842;28;20237;-79
2022/07/19 11:11:14;;;;;;;3.28;1.00;;;;;;;32.27;24.98;99866.53;5042343;28;20222;-81
2022/07/19 11:13:52;;;;;;;2.42;1.27;;;;;;;32.21;24.29;99864.38;5041944;28;20282;-80
2022/07/19 11:16:19;;;;;;;2.58;1.30;;;;;;;32.10;24.13;99863.34;5040359;28;20234;-80
2022/07/19 11:18:47;;;;;;;2.75;1.33;;;;;;;32.06;23.83;99859.63;5044050;28;20224;-81
2022/07/19 11:21:15;;;;;;;1.65;1.27;;;;;;;32.24;24.53;99849.84;5046773;28;20252;-79
2022/07/19 11:23:43;;;;;;;2.15;1.20;;;;;;;32.49;25.35;99855.97;5040689;28;20708;-81
2022/07/19 11:26:13;;;;;;;4.63;1.55;;;;;;;32.20;23.85;99855.25;5052086;28;20364;-81
2022/07/19 11:28:42;;;;;;;3.90;1.55;;;;;;;32.28;24.05;99848.75;5046179;28;20246;-80
2022/07/19 11:31:17;;;;;;;3.65;1.27;;;;;;;32.14;24.08;99840.09;5057721;28;20228;-79
2022/07/19 11:33:46;;;;;;;2.42;1.17;;;;;;;32.43;23.88;99846.31;5034311;28;20308;-79